createdAt,value
2018-09-14T07:46:04.582Z,17.80
2018-09-14T07:48:32.772Z,19.70
2018-09-14T07:51:01.015Z,17.40
2018-09-14T07:53:29.238Z,17.77
2018-09-14T07:55:57.465Z,18.90
2018-09-14T07:58:25.663Z,17.70
2018-09-14T08:00:53.904Z,19.93
2018-09-14T08:03:22.081Z,17.27
2018-09-14T08:05:50.292Z,17.33
2018-09-14T08:10:53.193Z,18.43
2018-09-14T08:13:21.491Z,18.97
2018-09-14T08:15:49.969Z,18.70
2018-09-14T08:18:17.953Z,17.40
2018-09-14T08:20:46.157Z,19.07
2018-09-14T08:23:14.156Z,18.97
2018-09-14T08:25:42.373Z,18.53
2018-09-14T08:28:10.582Z,19.67
2018-09-14T08:30:38.537Z,20.83
2018-09-14T08:33:06.477Z,19.23
2018-09-14T08:35:34.711Z,19.23
2018-09-14T08:38:02.901Z,21.20
2018-09-14T08:40:31.114Z,19.40
2018-09-14T08:42:59.312Z,19.20
2018-09-14T08:45:27.534Z,19.70
2018-09-14T08:47:55.788Z,21.13
2018-09-14T08:50:23.928Z,18.00
2018-09-14T08:52:51.875Z,20.30
2018-09-14T08:55:20.084Z,18.30
2018-09-14T08:57:48.288Z,20.80
2018-09-14T09:00:21.407Z,19.83
2018-09-14T09:02:50.039Z,18.10
2018-09-14T09:05:18.246Z,19.97
2018-09-14T09:07:46.212Z,20.33
2018-09-14T09:10:14.897Z,18.13
2018-09-14T09:12:43.126Z,20.00
2018-09-14T09:15:11.406Z,18.83
2018-09-14T09:17:39.419Z,20.53
2018-09-14T09:20:07.594Z,20.17
2018-09-14T09:22:35.898Z,18.33
2018-09-14T09:25:04.023Z,19.50
2018-09-14T09:27:32.354Z,16.80
2018-09-14T09:30:00.618Z,18.30
2018-09-14T09:32:28.863Z,18.27
2018-09-14T09:34:57.227Z,17.67
2018-09-14T09:37:25.479Z,18.53
2018-09-14T09:39:53.460Z,16.13
2018-09-14T09:42:21.681Z,16.60
2018-09-14T09:44:52.906Z,14.80
2018-09-14T09:47:20.875Z,15.00
2018-09-14T09:49:49.097Z,15.80
2018-09-14T09:52:17.329Z,17.60
2018-09-14T09:54:45.308Z,15.87
2018-09-14T09:57:13.585Z,16.57
2018-09-14T09:59:42.579Z,15.83
2018-09-14T10:02:16.131Z,14.50
2018-09-14T10:04:49.834Z,16.10
2018-09-14T10:07:18.081Z,15.00
2018-09-14T10:09:46.316Z,14.20
2018-09-14T10:12:14.667Z,15.47
2018-09-14T10:14:43.172Z,14.50
2018-09-14T10:17:11.141Z,13.37
2018-09-14T10:19:39.362Z,14.90
2018-09-14T10:22:07.622Z,12.10
2018-09-14T10:24:35.867Z,12.93
2018-09-14T10:27:04.095Z,13.33
2018-09-14T10:29:32.293Z,12.97
2018-09-14T10:32:00.249Z,11.43
2018-09-14T10:34:28.514Z,13.03
2018-09-14T10:36:56.558Z,12.07
2018-09-14T10:39:24.548Z,13.10
2018-09-14T10:41:52.825Z,13.70
2018-09-14T10:44:21.031Z,15.17
2018-09-14T10:46:49.259Z,14.53
2018-09-14T10:49:17.457Z,13.53
2018-09-14T10:51:45.688Z,14.83
2018-09-14T10:54:13.632Z,12.93
2018-09-14T10:56:41.642Z,14.30
2018-09-14T10:59:09.847Z,13.73
2018-09-14T11:01:37.788Z,15.60
2018-09-14T11:04:05.720Z,13.40
2018-09-14T11:06:33.993Z,12.70
2018-09-14T11:09:02.170Z,13.60
2018-09-14T11:11:30.131Z,14.80
2018-09-14T11:13:58.209Z,13.20
2018-09-14T11:16:26.153Z,11.27
2018-09-14T11:18:54.408Z,13.87
2018-09-14T11:21:22.372Z,11.90
2018-09-14T11:23:50.602Z,13.20
2018-09-14T11:26:18.786Z,11.40
2018-09-14T11:28:46.740Z,11.47
2018-09-14T11:31:14.949Z,10.77
2018-09-14T11:33:42.881Z,12.00
2018-09-14T11:36:11.092Z,11.67
2018-09-14T11:38:39.344Z,10.73
2018-09-14T11:41:07.285Z,10.40
2018-09-14T11:43:35.466Z,10.93
2018-09-14T11:46:03.476Z,10.77
2018-09-14T11:48:31.640Z,11.03
2018-09-14T11:50:59.937Z,9.27
2018-09-14T11:53:27.885Z,12.00
2018-09-14T11:55:56.105Z,12.33
2018-09-14T11:58:24.477Z,11.27
2018-09-14T12:00:52.820Z,11.77
2018-09-14T12:03:21.054Z,12.70
2018-09-14T12:05:49.573Z,12.77
2018-09-14T12:08:17.899Z,12.93
2018-09-14T12:10:46.149Z,11.33
2018-09-14T12:13:14.208Z,10.20
2018-09-14T12:15:42.444Z,10.13
2018-09-14T12:18:10.637Z,8.73
2018-09-14T12:20:38.610Z,7.70
2018-09-14T12:23:06.565Z,7.10
2018-09-14T12:25:37.978Z,7.57
2018-09-14T12:28:06.440Z,5.90
2018-09-14T12:30:34.667Z,6.20
2018-09-14T12:33:02.861Z,7.07
2018-09-14T12:35:31.224Z,8.17
2018-09-14T12:37:59.653Z,10.87
2018-09-14T12:40:27.903Z,9.03
2018-09-14T12:42:55.855Z,9.93
2018-09-14T12:45:24.081Z,10.93
2018-09-14T12:47:52.428Z,11.83
2018-09-14T12:50:20.396Z,11.87
2018-09-14T12:52:48.349Z,9.40
2018-09-14T12:55:16.538Z,9.80
2018-09-14T12:57:44.504Z,9.83
2018-09-14T13:00:12.748Z,10.43
2018-09-14T13:02:40.994Z,8.50
2018-09-14T13:05:09.573Z,8.70
2018-09-14T13:07:37.778Z,9.57
2018-09-14T13:10:05.955Z,7.87
2018-09-14T13:12:34.150Z,6.87
2018-09-14T13:15:02.501Z,5.97
2018-09-14T13:17:30.654Z,8.50
2018-09-14T13:19:58.593Z,5.80
2018-09-14T13:22:26.808Z,7.00
2018-09-14T13:24:55.026Z,5.30
2018-09-14T13:27:23.477Z,5.37
2018-09-14T13:29:51.699Z,5.47
2018-09-14T13:32:19.899Z,5.07
2018-09-14T13:34:47.895Z,6.17
2018-09-14T13:37:16.070Z,5.50
2018-09-14T13:39:44.290Z,6.60
2018-09-14T13:42:12.222Z,6.97
2018-09-14T13:44:40.611Z,9.00
2018-09-14T13:47:08.789Z,8.00
2018-09-14T13:49:36.745Z,6.37
2018-09-14T13:52:04.950Z,5.37
2018-09-14T13:54:33.185Z,5.43
2018-09-14T13:57:08.112Z,6.60
2018-09-14T13:59:36.084Z,4.60
2018-09-14T14:02:04.257Z,4.03
2018-09-14T14:04:32.248Z,4.17
2018-09-14T14:07:00.490Z,3.57
2018-09-14T14:09:28.674Z,5.60
2018-09-14T14:11:56.632Z,4.17
2018-09-14T14:14:24.870Z,4.20
2018-09-14T14:16:52.846Z,4.50
2018-09-14T14:19:21.018Z,5.00
2018-09-14T14:21:48.952Z,6.00
2018-09-14T14:24:17.173Z,4.93
2018-09-14T14:26:45.134Z,4.37
2018-09-14T14:29:13.090Z,4.73
2018-09-14T14:31:41.274Z,4.87
2018-09-14T14:34:09.559Z,5.20
2018-09-14T14:36:37.741Z,4.03
2018-09-14T14:39:07.540Z,4.90
2018-09-14T14:41:35.527Z,3.43
2018-09-14T14:44:03.697Z,3.93
2018-09-14T14:46:31.919Z,4.03
2018-09-14T14:48:59.852Z,3.80
2018-09-14T14:51:28.078Z,3.70
2018-09-14T14:53:56.304Z,3.03
2018-09-14T14:56:24.288Z,4.37
2018-09-14T14:58:52.467Z,4.53
2018-09-14T15:01:20.776Z,3.67
2018-09-14T15:03:48.721Z,4.00
2018-09-14T15:06:16.952Z,4.07
2018-09-14T15:08:45.166Z,4.80
2018-09-14T15:11:13.160Z,4.07
2018-09-14T15:13:41.235Z,3.87
2018-09-14T15:16:09.413Z,3.40
2018-09-14T15:18:37.641Z,3.67
2018-09-14T15:21:05.678Z,3.00
2018-09-14T15:23:33.905Z,3.37
2018-09-14T15:26:02.142Z,3.50
2018-09-14T15:28:30.165Z,3.63
2018-09-14T15:30:58.417Z,3.57
2018-09-14T15:33:26.601Z,4.17
2018-09-14T15:35:54.674Z,3.57
2018-09-14T15:38:22.870Z,3.17
2018-09-14T15:40:51.091Z,3.20
2018-09-14T15:43:19.043Z,2.90
2018-09-14T15:45:47.259Z,3.23
2018-09-14T15:48:15.522Z,3.70
2018-09-14T15:50:43.501Z,2.40
2018-09-14T15:53:11.469Z,3.00
2018-09-14T15:55:39.686Z,3.40
2018-09-14T15:58:07.878Z,3.30
2018-09-14T16:00:35.866Z,3.30
2018-09-14T16:03:04.054Z,4.27
2018-09-14T16:05:32.257Z,3.70
2018-09-14T16:08:00.253Z,4.90
2018-09-14T16:10:29.311Z,4.50
2018-09-14T16:12:57.264Z,4.37
2018-09-14T16:15:25.270Z,4.70
2018-09-14T16:17:53.615Z,3.90
2018-09-14T16:20:21.861Z,3.33
2018-09-14T16:22:49.868Z,3.90
2018-09-14T16:25:18.170Z,5.07
2018-09-14T16:27:46.427Z,3.70
2018-09-14T16:30:14.405Z,3.87
2018-09-14T16:32:42.673Z,3.93
2018-09-14T16:35:11.027Z,3.30
2018-09-14T16:37:39.327Z,3.10
2018-09-14T16:40:07.377Z,4.00
2018-09-14T16:42:35.935Z,3.60
2018-09-14T16:45:04.273Z,3.83
2018-09-14T16:47:33.060Z,4.13
2018-09-14T16:50:01.330Z,3.53
2018-09-14T16:52:29.552Z,4.13
2018-09-14T16:54:57.850Z,4.00
2018-09-14T16:57:26.120Z,4.43
2018-09-14T16:59:54.325Z,4.67
2018-09-14T17:02:22.252Z,4.43
2018-09-14T17:04:50.490Z,3.57
2018-09-14T17:07:18.749Z,4.47
2018-09-14T17:09:47.082Z,4.30
2018-09-14T17:12:15.355Z,4.90
2018-09-14T17:14:43.605Z,4.20
2018-09-14T17:17:11.814Z,3.87
2018-09-14T17:19:40.027Z,3.30
2018-09-14T17:22:08.996Z,2.93
2018-09-14T17:24:37.001Z,3.17
2018-09-14T17:27:05.233Z,3.27
2018-09-14T17:29:33.437Z,3.00
2018-09-14T17:32:01.683Z,3.90
2018-09-14T17:34:29.863Z,2.97
2018-09-14T17:36:58.084Z,5.00
2018-09-14T17:39:26.305Z,3.13
2018-09-14T17:41:54.509Z,3.10
2018-09-14T17:44:22.767Z,2.73
2018-09-14T17:46:50.967Z,3.53
2018-09-14T17:49:19.189Z,3.40
2018-09-14T17:51:47.386Z,2.70
2018-09-14T17:54:15.578Z,3.97
2018-09-14T17:56:43.772Z,2.70
2018-09-14T17:59:11.990Z,3.00
2018-09-14T18:01:40.208Z,3.00
2018-09-14T18:04:08.476Z,2.80
2018-09-14T18:06:36.680Z,3.03
2018-09-14T18:09:06.960Z,2.67
2018-09-14T18:11:35.198Z,2.70
2018-09-14T18:14:03.396Z,3.10
2018-09-14T18:16:31.613Z,3.53
2018-09-14T18:18:59.798Z,2.73
2018-09-14T18:21:27.985Z,2.40
2018-09-14T18:23:55.945Z,2.90
2018-09-14T18:26:24.197Z,2.80
2018-09-14T18:28:52.406Z,3.17
2018-09-14T18:31:20.636Z,2.73
2018-09-14T18:33:48.836Z,2.67
2018-09-14T18:36:17.185Z,3.03
2018-09-14T18:38:45.289Z,2.10
2018-09-14T18:41:13.519Z,2.53
2018-09-14T18:43:41.715Z,3.80
2018-09-14T18:46:09.937Z,2.57
2018-09-14T18:48:37.881Z,2.20
2018-09-14T18:51:06.117Z,2.60
2018-09-14T18:53:34.350Z,2.77
2018-09-14T18:56:02.303Z,2.03
2018-09-14T18:58:30.469Z,2.07
2018-09-14T19:00:58.222Z,2.20
2018-09-14T19:03:26.156Z,2.20
2018-09-14T19:05:54.128Z,2.50
2018-09-14T19:08:22.629Z,1.90
2018-09-14T19:10:50.613Z,3.00
2018-09-14T19:13:18.544Z,2.10
2018-09-14T19:15:46.482Z,3.00
2018-09-14T19:18:14.428Z,2.87
2018-09-14T19:20:42.375Z,3.70
2018-09-14T19:23:10.332Z,2.73
2018-09-14T19:25:38.276Z,2.60
2018-09-14T19:28:06.233Z,2.90
2018-09-14T19:30:34.204Z,2.30
2018-09-14T19:33:02.143Z,2.47
2018-09-14T19:35:30.109Z,2.30
2018-09-14T19:37:58.339Z,2.50
2018-09-14T19:40:26.320Z,2.03
2018-09-14T19:42:54.286Z,3.00
2018-09-14T19:45:22.269Z,3.70
2018-09-14T19:47:50.496Z,3.03
2018-09-14T19:50:18.525Z,2.40
2018-09-14T19:52:46.377Z,2.37
2018-09-14T19:55:14.334Z,2.33
2018-09-14T19:57:42.279Z,2.73
2018-09-14T20:00:10.469Z,3.40
2018-09-14T20:02:38.416Z,3.27
2018-09-14T20:05:06.371Z,2.20
2018-09-14T20:07:34.570Z,2.67
2018-09-14T20:10:02.512Z,2.27
2018-09-14T20:12:30.473Z,3.53
2018-09-14T20:14:58.442Z,1.87
2018-09-14T20:17:26.401Z,2.40
2018-09-14T20:19:54.569Z,2.80
2018-09-14T20:22:22.513Z,2.90
2018-09-14T20:24:50.445Z,2.60
2018-09-14T20:27:18.405Z,2.97
2018-09-14T20:29:46.374Z,3.00
2018-09-14T20:32:14.563Z,2.50
2018-09-14T20:34:42.564Z,2.90
2018-09-14T20:37:10.538Z,2.53
2018-09-14T20:39:38.737Z,2.93
2018-09-14T20:42:06.685Z,3.50
2018-09-14T20:44:34.639Z,2.67
2018-09-14T20:47:02.817Z,3.27
2018-09-14T20:52:05.494Z,3.10
2018-09-14T20:54:33.695Z,3.17
2018-09-14T20:57:01.902Z,3.37
2018-09-14T20:59:30.127Z,3.07
2018-09-14T21:01:58.329Z,2.60
2018-09-14T21:04:26.494Z,3.83
2018-09-14T21:06:54.715Z,2.97
2018-09-14T21:09:22.904Z,3.30
2018-09-14T21:11:51.118Z,3.80
2018-09-14T21:14:19.380Z,4.33
2018-09-14T21:16:47.594Z,4.50
2018-09-14T21:19:15.791Z,4.37
2018-09-14T21:21:44.009Z,4.10
2018-09-14T21:24:12.201Z,4.20
2018-09-14T21:26:40.397Z,4.13
2018-09-14T21:29:08.689Z,3.53
2018-09-14T21:31:36.830Z,3.90
2018-09-14T21:34:05.040Z,4.03
2018-09-14T21:36:33.000Z,4.33
2018-09-14T21:39:01.226Z,4.47
2018-09-14T21:41:29.446Z,3.73
2018-09-14T21:43:57.649Z,4.17
2018-09-14T21:46:25.851Z,3.70
2018-09-14T21:48:53.805Z,4.60
2018-09-14T21:51:21.980Z,4.50
2018-09-14T21:53:49.967Z,3.97
2018-09-14T21:56:18.126Z,6.27
2018-09-14T21:58:46.321Z,5.13
